createdAt,value
2023-05-01T00:03:47.408Z,2.05
2023-05-01T00:08:49.473Z,2.02
2023-05-01T00:13:51.736Z,2.00
2023-05-01T00:18:55.186Z,1.92
2023-05-01T00:23:57.365Z,1.83
2023-05-01T00:28:59.380Z,1.71
2023-05-01T00:34:02.766Z,1.82
2023-05-01T00:39:07.585Z,1.85
2023-05-01T00:44:09.552Z,1.80
2023-05-01T00:49:13.456Z,1.81
2023-05-01T00:54:15.606Z,1.72
2023-05-01T00:59:17.858Z,1.68
2023-05-01T01:04:21.316Z,1.63
2023-05-01T01:09:31.722Z,1.62
2023-05-01T01:14:40.123Z,1.57
2023-05-01T01:20:15.940Z,1.36
2023-05-01T01:25:50.875Z,1.20
2023-05-01T01:31:08.969Z,1.11
2023-05-01T01:36:21.300Z,1.06
2023-05-01T01:41:30.248Z,0.99
2023-05-01T01:46:37.536Z,1.00
2023-05-01T01:51:42.367Z,0.87
2023-05-01T01:56:46.131Z,0.94
2023-05-01T02:01:50.989Z,0.70
2023-05-01T02:06:56.449Z,0.54
2023-05-01T02:12:00.232Z,0.46
2023-05-01T02:17:02.902Z,0.46
2023-05-01T02:22:07.720Z,0.64
2023-05-01T02:27:13.719Z,0.68
2023-05-01T02:32:15.717Z,0.78
2023-05-01T02:37:19.073Z,0.80
2023-05-01T02:42:23.892Z,0.81
2023-05-01T02:47:28.910Z,0.57
2023-05-01T02:52:32.597Z,0.75
2023-05-01T02:57:34.677Z,0.51
2023-05-01T03:02:36.760Z,0.32
2023-05-01T03:07:40.036Z,0.35
2023-05-01T03:12:42.319Z,0.43
2023-05-01T03:17:44.267Z,0.51
2023-05-01T03:22:47.552Z,0.50
2023-05-01T03:27:50.021Z,0.52
2023-05-01T03:32:52.053Z,0.75
2023-05-01T03:37:55.562Z,1.16
2023-05-01T03:42:57.600Z,1.37
2023-05-01T03:47:59.785Z,1.65
2023-05-01T03:53:03.087Z,2.07
2023-05-01T03:58:05.046Z,2.31
2023-05-01T04:03:07.255Z,2.56
2023-05-01T04:08:11.255Z,3.03
2023-05-01T04:13:13.391Z,3.29
2023-05-01T04:18:15.353Z,3.33
2023-05-01T04:23:18.762Z,3.74
2023-05-01T04:28:21.042Z,4.14
2023-05-01T04:33:23.543Z,4.55
2023-05-01T04:38:26.988Z,4.83
2023-05-01T04:43:28.895Z,5.36
2023-05-01T04:48:31.034Z,5.79
2023-05-01T04:53:34.328Z,6.22
2023-05-01T04:58:36.335Z,6.52
2023-05-01T05:03:38.393Z,6.82
2023-05-01T05:08:42.344Z,6.91
2023-05-01T05:13:44.434Z,7.31
2023-05-01T05:18:46.411Z,7.64
2023-05-01T05:23:49.768Z,7.79
2023-05-01T05:28:51.840Z,7.74
2023-05-01T05:33:53.955Z,7.64
2023-05-01T05:38:57.326Z,7.65
2023-05-01T05:43:59.662Z,7.69
2023-05-01T05:49:01.642Z,7.60
2023-05-01T05:54:05.014Z,7.85
2023-05-01T05:59:07.017Z,8.11
2023-05-01T06:04:09.876Z,8.30
2023-05-01T06:09:15.921Z,8.47
2023-05-01T06:14:19.015Z,8.59
2023-05-01T06:19:21.041Z,8.82
2023-05-01T06:24:24.641Z,9.07
2023-05-01T06:29:26.625Z,9.30
2023-05-01T06:34:28.614Z,9.46
2023-05-01T06:39:32.008Z,9.80
2023-05-01T06:44:33.981Z,9.94
2023-05-01T06:49:36.010Z,10.27
2023-05-01T06:54:39.420Z,10.32
2023-05-01T06:59:41.468Z,10.66
2023-05-01T07:04:44.450Z,10.53
2023-05-01T07:09:47.646Z,10.29
2023-05-01T07:14:49.599Z,10.52
2023-05-01T07:19:51.792Z,10.76
2023-05-01T07:24:55.062Z,10.90
2023-05-01T07:29:58.053Z,10.92
2023-05-01T07:35:00.365Z,11.33
2023-05-01T07:40:04.257Z,11.30
2023-05-01T07:45:07.587Z,11.72
2023-05-01T07:50:10.462Z,11.85
2023-05-01T07:55:13.844Z,12.18
2023-05-01T08:00:17.490Z,12.34
2023-05-01T08:05:19.691Z,12.30
2023-05-01T08:10:23.083Z,12.56
2023-05-01T08:15:25.105Z,12.69
2023-05-01T08:20:27.250Z,13.29
2023-05-01T08:25:31.603Z,13.72
2023-05-01T08:30:33.637Z,14.18
2023-05-01T08:35:35.654Z,14.33
2023-05-01T08:40:40.938Z,14.24
2023-05-01T08:45:43.312Z,14.48
2023-05-01T08:50:47.465Z,14.51
2023-05-01T08:55:52.216Z,14.81
2023-05-01T09:00:57.495Z,15.05
2023-05-01T09:06:02.589Z,14.94
2023-05-01T09:11:06.441Z,15.04
2023-05-01T09:16:08.586Z,15.55
2023-05-01T09:21:12.008Z,15.80
2023-05-01T09:26:15.824Z,15.71
2023-05-01T09:31:22.901Z,15.49
2023-05-01T09:36:27.936Z,15.62
2023-05-01T09:41:33.024Z,15.77
2023-05-01T09:46:42.565Z,16.05
2023-05-01T09:51:44.702Z,16.16
2023-05-01T09:56:49.009Z,16.03
2023-05-01T10:01:51.406Z,15.66
2023-05-01T10:06:53.372Z,15.68
2023-05-01T10:11:57.720Z,15.86
2023-05-01T10:17:00.064Z,16.35
2023-05-01T10:22:02.389Z,16.50
2023-05-01T10:27:07.820Z,16.35
2023-05-01T10:32:10.387Z,16.41
2023-05-01T10:37:17.237Z,16.59
2023-05-01T10:42:20.615Z,16.53
2023-05-01T10:47:44.714Z,16.50
2023-05-01T10:53:18.361Z,16.41
2023-05-01T10:58:56.489Z,16.28
2023-05-01T11:03:59.862Z,16.32
2023-05-01T11:09:02.775Z,16.30
2023-05-01T11:14:07.505Z,16.20
2023-05-01T11:19:11.108Z,16.36
2023-05-01T11:24:13.100Z,16.40
2023-05-01T11:29:17.124Z,16.56
2023-05-01T11:34:19.343Z,16.29
2023-05-01T11:39:22.151Z,16.11
2023-05-01T11:44:25.516Z,16.34
2023-05-01T11:49:30.757Z,16.51
2023-05-01T11:54:47.404Z,16.70
2023-05-01T11:59:50.784Z,16.75
2023-05-01T12:04:53.973Z,16.89
2023-05-01T12:09:56.139Z,17.11
2023-05-01T12:15:00.912Z,17.10
2023-05-01T12:20:04.355Z,16.98
2023-05-01T12:25:07.694Z,16.97
2023-05-01T12:30:12.059Z,17.12
2023-05-01T12:35:15.490Z,17.08
2023-05-01T12:40:17.570Z,17.35
2023-05-01T12:45:21.010Z,17.65
2023-05-01T12:50:23.093Z,17.66
2023-05-01T12:55:25.148Z,17.71
2023-05-01T13:00:28.454Z,17.74
2023-05-01T13:05:30.952Z,17.88
2023-05-01T13:10:32.975Z,18.01
2023-05-01T13:15:37.458Z,17.91
2023-05-01T13:20:39.514Z,17.81
2023-05-01T13:25:41.604Z,17.71
2023-05-01T13:30:45.382Z,17.62
2023-05-01T13:35:47.352Z,17.83
2023-05-01T13:40:49.614Z,17.86
2023-05-01T13:45:57.829Z,18.19
2023-05-01T13:50:59.788Z,18.25
2023-05-01T13:56:04.228Z,18.16
2023-05-01T14:01:15.031Z,18.32
2023-05-01T14:06:18.992Z,18.37
2023-05-01T14:11:21.073Z,18.20
2023-05-01T14:16:25.962Z,17.96
2023-05-01T14:21:28.304Z,18.32
2023-05-01T14:26:30.555Z,18.43
2023-05-01T14:31:33.907Z,18.87
2023-05-01T14:36:35.962Z,18.73
2023-05-01T14:41:42.310Z,18.80
2023-05-01T14:46:49.581Z,18.59
2023-05-01T14:51:53.263Z,18.68
2023-05-01T14:56:55.267Z,19.01
2023-05-01T15:01:58.639Z,18.64
2023-05-01T15:07:00.634Z,18.60
2023-05-01T15:12:04.527Z,18.56
2023-05-01T15:17:08.886Z,18.33
2023-05-01T15:22:10.836Z,18.18
2023-05-01T15:27:13.076Z,18.39
2023-05-01T15:32:16.475Z,18.48
2023-05-01T15:37:18.478Z,18.18
2023-05-01T15:42:20.742Z,18.42
2023-05-01T15:47:24.178Z,18.63
2023-05-01T15:52:27.090Z,18.63
2023-05-01T15:57:29.467Z,18.57
2023-05-01T16:02:33.204Z,18.82
2023-05-01T16:07:35.368Z,19.12
2023-05-01T16:12:37.592Z,19.35
2023-05-01T16:17:43.674Z,19.45
2023-05-01T16:22:45.860Z,19.81
2023-05-01T16:27:47.921Z,20.47
2023-05-01T16:32:51.330Z,20.55
2023-05-01T16:37:53.704Z,20.60
2023-05-01T16:42:56.173Z,20.94
2023-05-01T16:47:59.692Z,20.26
2023-05-01T16:53:01.714Z,20.35
2023-05-01T16:58:03.700Z,19.45
2023-05-01T17:03:07.166Z,19.19
2023-05-01T17:08:10.550Z,18.83
2023-05-01T17:13:14.544Z,18.33
2023-05-01T17:18:18.092Z,17.29
2023-05-01T17:23:22.283Z,16.18
2023-05-01T17:28:24.508Z,15.90
2023-05-01T17:33:30.994Z,15.57
2023-05-01T17:38:33.032Z,14.98
2023-05-01T17:43:35.042Z,14.67
2023-05-01T17:48:38.366Z,14.23
2023-05-01T17:53:40.799Z,13.71
2023-05-01T17:58:42.692Z,13.14
2023-05-01T18:03:46.216Z,12.57
2023-05-01T18:08:50.004Z,12.19
2023-05-01T18:13:52.207Z,11.87
2023-05-01T18:18:58.028Z,11.61
2023-05-01T18:24:02.306Z,11.43
2023-05-01T18:29:04.313Z,11.16
2023-05-01T18:34:10.078Z,11.07
2023-05-01T18:39:12.302Z,11.02
2023-05-01T18:44:14.484Z,10.87
2023-05-01T18:49:23.325Z,10.73
2023-05-01T18:54:25.474Z,10.62
2023-05-01T18:59:30.901Z,10.49
2023-05-01T19:04:49.156Z,10.38
2023-05-01T19:09:58.753Z,10.26
2023-05-01T19:15:01.164Z,10.22
2023-05-01T19:20:05.747Z,10.19
2023-05-01T19:25:08.530Z,10.10
2023-05-01T19:30:11.051Z,9.84
2023-05-01T19:35:14.600Z,9.77
2023-05-01T19:40:16.820Z,9.76
2023-05-01T19:45:18.877Z,9.72
2023-05-01T19:50:22.713Z,9.76
2023-05-01T19:55:24.899Z,9.78
2023-05-01T20:00:27.969Z,10.15
2023-05-01T20:05:32.482Z,10.38
2023-05-01T20:10:34.480Z,10.56
2023-05-01T20:15:36.982Z,10.96
2023-05-01T20:20:40.329Z,11.17
2023-05-01T20:25:42.598Z,11.12
2023-05-01T20:30:46.212Z,11.20
2023-05-01T20:35:49.640Z,11.57
2023-05-01T20:40:51.687Z,11.72
2023-05-01T20:45:53.670Z,11.53
2023-05-01T20:50:57.184Z,11.64
2023-05-01T20:55:59.157Z,12.06
2023-05-01T21:01:01.735Z,11.97
2023-05-01T21:06:05.709Z,12.05
2023-05-01T21:11:07.740Z,12.31
2023-05-01T21:16:13.910Z,12.62
2023-05-01T21:21:17.503Z,12.68
2023-05-01T21:26:19.715Z,12.44
2023-05-01T21:31:22.159Z,13.00
2023-05-01T21:36:25.511Z,13.44
2023-05-01T21:41:27.460Z,13.13
2023-05-01T21:46:29.525Z,12.75
2023-05-01T21:51:33.451Z,12.56
2023-05-01T21:56:35.585Z,12.57
2023-05-01T22:01:39.164Z,12.49
2023-05-01T22:06:42.499Z,12.67
2023-05-01T22:11:44.550Z,12.14
2023-05-01T22:16:46.782Z,11.11
2023-05-01T22:21:50.245Z,11.11
2023-05-01T22:26:52.340Z,11.12
2023-05-01T22:31:54.296Z,10.80
2023-05-01T22:36:57.580Z,10.58
2023-05-01T22:41:59.818Z,10.62
2023-05-01T22:47:01.752Z,11.17
2023-05-01T22:52:05.498Z,11.63
2023-05-01T22:57:07.675Z,12.13
2023-05-01T23:02:10.075Z,12.81
2023-05-01T23:07:14.395Z,12.88
2023-05-01T23:12:19.915Z,12.61
2023-05-01T23:17:22.043Z,12.72
2023-05-01T23:22:25.778Z,12.70
2023-05-01T23:27:28.189Z,12.92
2023-05-01T23:32:31.894Z,12.67
2023-05-01T23:37:35.330Z,12.83
2023-05-01T23:42:38.301Z,12.84
2023-05-01T23:47:40.695Z,12.62
2023-05-01T23:52:44.333Z,12.86
2023-05-01T23:57:46.425Z,12.62
